createdAt,value
2022-09-09T00:00:56.212Z,66.29
2022-09-09T00:03:31.484Z,66.47
2022-09-09T00:06:24.223Z,66.69
2022-09-09T00:09:16.714Z,66.64
2022-09-09T00:12:11.207Z,66.44
2022-09-09T00:14:55.151Z,66.61
2022-09-09T00:17:49.322Z,66.66
2022-09-09T00:20:36.284Z,66.63
2022-09-09T00:23:29.009Z,66.74
2022-09-09T00:26:23.685Z,67.11
2022-09-09T00:28:58.570Z,67.28
2022-09-09T00:31:32.611Z,67.40
2022-09-09T00:34:19.701Z,67.68
2022-09-09T00:36:54.147Z,67.74
2022-09-09T00:39:38.993Z,67.66
2022-09-09T00:42:19.767Z,67.03
2022-09-09T00:44:54.996Z,66.86
2022-09-09T00:47:48.338Z,67.42
2022-09-09T00:50:25.969Z,67.54
2022-09-09T00:53:10.562Z,67.86
2022-09-09T00:56:06.328Z,67.86
2022-09-09T00:58:38.259Z,67.95
2022-09-09T01:01:15.052Z,68.18
2022-09-09T01:03:59.250Z,67.95
2022-09-09T01:06:37.992Z,67.97
2022-09-09T01:09:22.200Z,67.56
2022-09-09T01:12:09.088Z,67.43
2022-09-09T01:14:45.413Z,67.53
2022-09-09T01:17:21.988Z,67.65
2022-09-09T01:20:10.641Z,67.61
2022-09-09T01:22:56.287Z,67.86
2022-09-09T01:25:50.393Z,67.96
2022-09-09T01:28:26.773Z,68.08
2022-09-09T01:31:00.821Z,68.48
2022-09-09T01:33:34.344Z,68.85
2022-09-09T01:36:12.215Z,68.93
2022-09-09T01:38:51.682Z,69.35
2022-09-09T01:41:24.003Z,69.64
2022-09-09T01:43:59.140Z,69.71
2022-09-09T01:46:32.445Z,69.72
2022-09-09T01:49:08.223Z,69.99
2022-09-09T01:51:43.352Z,70.14
2022-09-09T01:54:17.028Z,70.41
2022-09-09T01:57:07.017Z,70.53
2022-09-09T01:59:57.123Z,70.55
2022-09-09T02:02:34.944Z,70.43
2022-09-09T02:05:26.414Z,70.34
2022-09-09T02:08:01.859Z,70.37
2022-09-09T02:10:45.037Z,70.10
2022-09-09T02:13:21.944Z,70.17
2022-09-09T02:16:22.091Z,70.18
2022-09-09T02:19:14.137Z,70.02
2022-09-09T02:21:48.864Z,69.71
2022-09-09T02:24:21.117Z,69.69
2022-09-09T02:26:58.048Z,70.00
2022-09-09T02:29:39.383Z,70.13
2022-09-09T02:32:17.285Z,70.37
2022-09-09T02:34:52.323Z,70.34
2022-09-09T02:37:28.778Z,70.30
2022-09-09T02:40:01.198Z,70.53
2022-09-09T02:42:34.506Z,70.56
2022-09-09T02:45:07.334Z,70.82
2022-09-09T02:47:57.573Z,71.08
2022-09-09T02:50:34.808Z,71.40
2022-09-09T02:53:22.047Z,71.72
2022-09-09T02:56:07.843Z,72.15
2022-09-09T02:58:41.771Z,72.58
2022-09-09T03:01:15.241Z,72.85
2022-09-09T03:03:47.607Z,73.16
2022-09-09T03:06:20.976Z,73.28
2022-09-09T03:08:54.802Z,73.81
2022-09-09T03:11:29.114Z,74.09
2022-09-09T03:14:02.440Z,74.34
2022-09-09T03:16:36.110Z,74.07
2022-09-09T03:19:08.126Z,74.42
2022-09-09T03:21:40.264Z,74.28
2022-09-09T03:24:12.230Z,74.42
2022-09-09T03:26:45.856Z,74.66
2022-09-09T03:29:20.087Z,74.88
2022-09-09T03:31:52.273Z,74.65
2022-09-09T03:34:25.158Z,74.42
2022-09-09T03:36:57.206Z,74.34
2022-09-09T03:39:30.406Z,74.00
2022-09-09T03:42:06.768Z,73.62
2022-09-09T03:44:39.038Z,73.44
2022-09-09T03:47:11.031Z,73.30
2022-09-09T03:49:43.358Z,72.92
2022-09-09T03:52:15.610Z,72.92
2022-09-09T03:54:48.017Z,72.60
2022-09-09T03:57:21.045Z,72.45
2022-09-09T03:59:53.423Z,72.01
2022-09-09T04:02:26.007Z,71.54
2022-09-09T04:04:58.179Z,71.65
2022-09-09T04:07:30.188Z,71.49
2022-09-09T04:10:02.766Z,71.64
2022-09-09T04:12:35.842Z,71.49
2022-09-09T04:15:08.532Z,70.89
2022-09-09T04:17:40.781Z,71.08
2022-09-09T04:20:13.237Z,70.88
2022-09-09T04:22:45.375Z,70.28
2022-09-09T04:25:17.350Z,70.21
2022-09-09T04:27:51.003Z,69.87
2022-09-09T04:30:23.731Z,69.01
2022-09-09T04:32:55.911Z,69.01
2022-09-09T04:35:28.400Z,68.86
2022-09-09T04:38:00.867Z,68.39
2022-09-09T04:40:34.313Z,68.00
2022-09-09T04:43:08.310Z,67.37
2022-09-09T04:45:41.770Z,67.00
2022-09-09T04:48:13.971Z,66.14
2022-09-09T04:50:48.681Z,66.05
2022-09-09T04:53:20.733Z,65.90
2022-09-09T04:55:53.767Z,64.92
2022-09-09T04:58:26.429Z,64.80
2022-09-09T05:01:08.469Z,64.19
2022-09-09T05:03:41.386Z,63.95
2022-09-09T05:06:20.591Z,64.15
2022-09-09T05:08:54.662Z,63.60
2022-09-09T05:11:31.074Z,63.23
2022-09-09T05:14:05.515Z,62.70
2022-09-09T05:16:37.813Z,62.85
2022-09-09T05:19:10.245Z,62.15
2022-09-09T05:21:47.406Z,61.71
2022-09-09T05:24:21.074Z,61.44
2022-09-09T05:26:54.111Z,61.31
2022-09-09T05:29:27.026Z,60.85
2022-09-09T05:32:00.394Z,60.57
2022-09-09T05:34:33.071Z,60.41
2022-09-09T05:37:05.622Z,60.38
2022-09-09T05:39:40.363Z,60.56
2022-09-09T05:42:12.925Z,60.33
2022-09-09T05:44:46.121Z,59.04
2022-09-09T05:47:18.345Z,57.58
2022-09-09T05:49:50.621Z,54.71
2022-09-09T05:52:23.718Z,52.69
2022-09-09T05:54:58.271Z,51.58
2022-09-09T05:57:30.523Z,50.04
2022-09-09T06:00:03.894Z,48.67
2022-09-09T06:02:39.207Z,47.65
2022-09-09T06:05:12.050Z,46.66
2022-09-09T06:07:45.872Z,45.78
2022-09-09T06:10:18.439Z,45.25
2022-09-09T06:12:51.163Z,42.73
2022-09-09T06:15:23.321Z,41.46
2022-09-09T06:17:58.413Z,42.02
2022-09-09T06:20:32.135Z,42.02
2022-09-09T06:23:06.359Z,41.99
2022-09-09T06:25:40.262Z,40.20
2022-09-09T06:28:13.169Z,39.35
2022-09-09T06:30:45.739Z,39.37
2022-09-09T06:33:18.175Z,39.99
2022-09-09T06:35:58.245Z,38.92
2022-09-09T06:38:31.333Z,36.81
2022-09-09T06:41:03.471Z,33.67
2022-09-09T06:43:36.309Z,32.03
2022-09-09T06:46:12.520Z,31.02
2022-09-09T06:48:46.616Z,30.31
2022-09-09T06:51:25.583Z,29.18
2022-09-09T06:53:59.531Z,28.62
2022-09-09T06:56:35.285Z,29.31
2022-09-09T06:59:10.426Z,30.31
2022-09-09T07:01:55.617Z,32.04
2022-09-09T07:04:27.411Z,34.46
2022-09-09T07:07:00.032Z,35.90
2022-09-09T07:09:32.931Z,37.97
2022-09-09T07:12:06.959Z,38.69
2022-09-09T07:14:40.655Z,41.31
2022-09-09T07:17:13.159Z,41.31
2022-09-09T07:19:46.052Z,42.19
2022-09-09T07:22:21.331Z,43.15
2022-09-09T07:24:53.282Z,43.33
2022-09-09T07:27:25.523Z,42.65
2022-09-09T07:29:59.045Z,43.50
2022-09-09T07:32:33.025Z,43.46
2022-09-09T07:35:05.692Z,42.76
2022-09-09T07:37:39.519Z,42.56
2022-09-09T07:40:12.387Z,43.16
2022-09-09T07:42:44.715Z,42.65
2022-09-09T07:45:17.372Z,42.19
2022-09-09T07:47:50.161Z,42.60
2022-09-09T07:50:22.944Z,42.50
2022-09-09T07:52:57.611Z,42.53
2022-09-09T07:55:31.628Z,42.09
2022-09-09T07:58:04.039Z,40.70
2022-09-09T08:00:37.425Z,40.05
2022-09-09T08:03:09.815Z,39.51
2022-09-09T08:05:44.206Z,39.67
2022-09-09T08:08:17.722Z,39.55
2022-09-09T08:10:50.208Z,39.55
2022-09-09T08:13:22.187Z,39.08
2022-09-09T08:15:56.814Z,39.93
2022-09-09T08:18:29.518Z,39.49
2022-09-09T08:21:10.096Z,39.95
2022-09-09T08:23:47.143Z,40.52
2022-09-09T08:26:24.669Z,40.70
2022-09-09T08:28:59.197Z,41.24
2022-09-09T08:31:34.594Z,41.97
2022-09-09T08:34:10.017Z,41.13
2022-09-09T08:36:44.724Z,41.27
2022-09-09T08:39:20.051Z,41.69
2022-09-09T08:42:20.026Z,41.32
2022-09-09T08:45:01.703Z,42.36
2022-09-09T08:47:50.551Z,41.56
2022-09-09T08:50:26.226Z,41.28
2022-09-09T08:53:12.068Z,40.67
2022-09-09T08:55:56.737Z,40.56
2022-09-09T08:58:36.532Z,40.22
2022-09-09T09:01:22.326Z,40.12
2022-09-09T09:04:30.800Z,40.45
2022-09-09T09:07:32.100Z,39.97
2022-09-09T09:10:40.440Z,39.97
2022-09-09T09:12:57.463Z,40.19
2022-09-09T09:15:33.565Z,40.04
2022-09-09T09:18:06.940Z,40.01
2022-09-09T09:21:00.117Z,39.54
2022-09-09T09:23:41.074Z,39.54
2022-09-09T09:26:14.069Z,41.63
2022-09-09T09:28:48.255Z,41.63
2022-09-09T09:31:23.314Z,40.40
2022-09-09T09:33:57.219Z,40.44
2022-09-09T09:36:47.244Z,39.19
2022-09-09T09:42:06.666Z,38.63
2022-09-09T09:44:38.798Z,38.29
2022-09-09T09:47:18.318Z,38.29
2022-09-09T09:50:00.558Z,37.82
2022-09-09T09:52:36.939Z,38.20
2022-09-09T09:55:13.272Z,37.82
2022-09-09T09:57:46.873Z,37.79
2022-09-09T10:00:25.017Z,37.79
2022-09-09T10:03:03.166Z,37.82
2022-09-09T10:05:38.262Z,38.20
2022-09-09T10:08:18.995Z,38.20
2022-09-09T10:11:23.989Z,38.84
2022-09-09T10:14:20.260Z,38.84
2022-09-09T10:16:55.404Z,39.86
2022-09-09T10:19:30.454Z,39.19
2022-09-09T10:22:13.790Z,39.24
2022-09-09T10:25:07.598Z,37.91
2022-09-09T10:28:06.322Z,35.47
2022-09-09T10:31:08.299Z,35.30
2022-09-09T10:33:55.417Z,35.85
2022-09-09T10:36:28.861Z,36.05
2022-09-09T10:39:25.918Z,36.11
2022-09-09T10:42:18.484Z,36.33
2022-09-09T10:45:17.772Z,36.44
2022-09-09T10:47:52.786Z,37.72
2022-09-09T10:51:07.103Z,38.03
2022-09-09T10:53:30.748Z,38.69
2022-09-09T10:56:05.769Z,37.81
2022-09-09T10:58:40.821Z,37.81
2022-09-09T11:01:17.222Z,36.85
2022-09-09T11:03:52.761Z,36.25
2022-09-09T11:06:29.192Z,35.66
2022-09-09T11:09:04.261Z,37.89
2022-09-09T11:11:39.644Z,36.48
2022-09-09T11:14:37.498Z,36.26
2022-09-09T11:17:20.358Z,36.64
2022-09-09T11:19:52.932Z,36.77
2022-09-09T11:22:34.317Z,36.65
2022-09-09T11:25:27.748Z,37.47
2022-09-09T11:28:19.041Z,37.69
2022-09-09T11:31:21.497Z,37.69
2022-09-09T11:34:03.105Z,37.73
2022-09-09T11:36:47.169Z,37.25
2022-09-09T11:39:22.345Z,38.32
2022-09-09T11:41:55.273Z,38.65
2022-09-09T11:44:30.519Z,38.65
2022-09-09T11:47:02.953Z,38.85
2022-09-09T11:49:43.374Z,38.73
2022-09-09T11:52:27.893Z,38.71
2022-09-09T11:55:01.624Z,39.26
2022-09-09T11:57:37.290Z,39.47
2022-09-09T12:00:11.624Z,39.26
2022-09-09T12:02:46.407Z,38.89
2022-09-09T12:05:21.196Z,38.83
2022-09-09T12:07:59.715Z,38.82
2022-09-09T12:10:40.614Z,37.88
2022-09-09T12:13:21.777Z,37.31
2022-09-09T12:15:59.330Z,36.63
2022-09-09T12:18:40.819Z,35.95
2022-09-09T12:21:34.615Z,34.01
2022-09-09T12:24:15.960Z,34.01
2022-09-09T12:27:03.383Z,33.80
2022-09-09T12:29:41.361Z,33.18
2022-09-09T12:32:16.411Z,32.76
2022-09-09T12:35:04.200Z,30.98
2022-09-09T12:37:44.894Z,27.95
2022-09-09T12:40:26.521Z,24.59
2022-09-09T12:42:59.966Z,21.81
2022-09-09T12:45:36.685Z,20.15
2022-09-09T12:48:13.052Z,19.61
2022-09-09T12:50:52.468Z,18.44
2022-09-09T12:53:33.506Z,16.85
2022-09-09T12:56:15.055Z,15.66
2022-09-09T12:58:52.711Z,14.96
2022-09-09T13:01:34.688Z,14.76
2022-09-09T13:04:20.958Z,13.61
2022-09-09T13:06:53.681Z,14.10
2022-09-09T13:09:26.261Z,14.81
2022-09-09T13:11:59.800Z,14.94
2022-09-09T13:14:35.949Z,15.27
2022-09-09T13:17:11.783Z,15.68
2022-09-09T13:19:47.784Z,15.95
2022-09-09T13:22:28.953Z,15.57
2022-09-09T13:25:13.035Z,14.79
2022-09-09T13:28:00.393Z,15.54
2022-09-09T13:30:40.337Z,17.07
2022-09-09T13:33:18.861Z,18.57
2022-09-09T13:36:03.920Z,20.01
2022-09-09T13:38:41.803Z,20.42
2022-09-09T13:41:15.802Z,21.24
2022-09-09T13:43:51.420Z,22.01
2022-09-09T13:46:29.436Z,22.87
2022-09-09T13:49:03.952Z,25.77
2022-09-09T13:51:38.665Z,27.76
2022-09-09T13:54:16.011Z,28.65
2022-09-09T13:56:50.315Z,30.44
2022-09-09T13:59:22.689Z,31.37
2022-09-09T14:01:55.336Z,31.63
2022-09-09T14:04:27.532Z,32.78
2022-09-09T14:07:00.594Z,33.15
2022-09-09T14:09:32.837Z,33.46
2022-09-09T14:12:05.737Z,33.52
2022-09-09T14:14:38.197Z,31.72
2022-09-09T14:17:11.339Z,29.68
2022-09-09T14:19:44.378Z,26.63
2022-09-09T14:22:17.328Z,25.88
2022-09-09T14:24:50.596Z,24.10
2022-09-09T14:27:22.925Z,23.79
2022-09-09T14:29:55.616Z,24.39
2022-09-09T14:32:28.158Z,25.72
2022-09-09T14:35:00.446Z,27.32
2022-09-09T14:37:34.157Z,28.72
2022-09-09T14:40:08.551Z,29.70
2022-09-09T14:42:40.505Z,30.69
2022-09-09T14:45:13.473Z,30.97
2022-09-09T14:47:46.176Z,32.73
2022-09-09T14:50:18.466Z,33.80
2022-09-09T14:52:51.765Z,34.92
2022-09-09T14:55:24.274Z,35.62
2022-09-09T14:57:56.889Z,35.38
2022-09-09T15:00:29.160Z,35.05
2022-09-09T15:03:01.784Z,35.45
2022-09-09T15:05:34.419Z,35.78
2022-09-09T15:08:06.818Z,36.84
2022-09-09T15:10:40.137Z,37.42
2022-09-09T15:13:13.101Z,38.02
2022-09-09T15:15:45.991Z,39.62
2022-09-09T15:18:18.132Z,39.62
2022-09-09T15:20:50.238Z,39.94
2022-09-09T15:23:22.622Z,40.63
2022-09-09T15:25:56.805Z,41.07
2022-09-09T15:28:29.309Z,41.88
2022-09-09T15:31:04.233Z,41.68
2022-09-09T15:33:40.445Z,42.00
2022-09-09T15:36:28.099Z,42.61
2022-09-09T15:39:02.120Z,42.60
2022-09-09T15:41:34.714Z,42.78
2022-09-09T15:44:07.451Z,43.56
2022-09-09T15:46:42.201Z,43.55
2022-09-09T15:49:17.074Z,43.13
2022-09-09T15:51:58.649Z,43.86
2022-09-09T15:54:44.128Z,44.09
2022-09-09T15:57:16.225Z,44.18
2022-09-09T15:59:49.318Z,44.33
2022-09-09T16:02:23.004Z,44.74
2022-09-09T16:04:55.556Z,45.33
2022-09-09T16:07:27.829Z,45.34
2022-09-09T16:10:00.013Z,45.52
2022-09-09T16:12:32.704Z,46.01
2022-09-09T16:15:05.139Z,46.43
2022-09-09T16:17:39.020Z,46.85
2022-09-09T16:20:12.932Z,46.79
2022-09-09T16:22:45.709Z,46.96
2022-09-09T16:25:19.576Z,46.94
2022-09-09T16:27:51.875Z,47.30
2022-09-09T16:30:26.640Z,47.58
2022-09-09T16:32:58.992Z,47.60
2022-09-09T16:35:31.147Z,48.15
2022-09-09T16:38:03.288Z,48.45
2022-09-09T16:40:37.536Z,48.71
2022-09-09T16:43:13.848Z,48.63
2022-09-09T16:45:47.215Z,48.93
2022-09-09T16:48:19.973Z,49.23
2022-09-09T16:50:52.188Z,48.92
2022-09-09T16:53:24.686Z,49.29
2022-09-09T16:55:57.580Z,49.28
2022-09-09T16:58:29.752Z,49.47
2022-09-09T17:01:06.081Z,49.58
2022-09-09T17:03:38.712Z,49.76
2022-09-09T17:06:17.250Z,49.94
2022-09-09T17:08:50.031Z,50.12
2022-09-09T17:11:23.226Z,50.61
2022-09-09T17:13:57.160Z,50.73
2022-09-09T17:16:31.878Z,50.80
2022-09-09T17:19:05.413Z,51.12
2022-09-09T17:21:54.715Z,51.05
2022-09-09T17:24:14.148Z,52.11
2022-09-09T17:26:46.563Z,51.75
2022-09-09T17:29:18.652Z,52.14
2022-09-09T17:31:50.659Z,52.37
2022-09-09T17:34:23.112Z,52.19
2022-09-09T17:36:55.756Z,52.38
2022-09-09T17:39:28.579Z,52.69
2022-09-09T17:42:01.095Z,53.02
2022-09-09T17:44:34.223Z,53.69
2022-09-09T17:47:07.362Z,53.15
2022-09-09T17:49:40.405Z,54.14
2022-09-09T17:52:13.639Z,54.40
2022-09-09T17:54:46.006Z,54.58
2022-09-09T17:57:20.758Z,54.95
2022-09-09T17:59:52.936Z,54.61
2022-09-09T18:02:26.193Z,55.22
2022-09-09T18:05:00.717Z,55.31
2022-09-09T18:07:34.098Z,54.51
2022-09-09T18:10:06.906Z,55.26
2022-09-09T18:12:40.435Z,55.31
2022-09-09T18:15:24.150Z,55.09
2022-09-09T18:17:49.081Z,55.49
2022-09-09T18:20:23.416Z,55.22
2022-09-09T18:22:55.924Z,55.16
2022-09-09T18:25:30.269Z,55.36
2022-09-09T18:28:02.222Z,55.58
2022-09-09T18:30:36.462Z,55.72
2022-09-09T18:33:11.301Z,55.32
2022-09-09T18:35:44.340Z,56.06
2022-09-09T18:38:17.908Z,56.40
2022-09-09T18:40:50.352Z,57.17
2022-09-09T18:43:22.846Z,56.11
2022-09-09T18:45:55.073Z,55.50
2022-09-09T18:48:28.730Z,55.49
2022-09-09T18:51:09.431Z,56.10
2022-09-09T18:53:43.153Z,56.27
2022-09-09T18:56:16.272Z,56.43
2022-09-09T18:58:50.280Z,55.68
2022-09-09T19:01:24.446Z,57.05
2022-09-09T19:03:59.839Z,57.55
2022-09-09T19:06:34.691Z,57.15
2022-09-09T19:09:08.091Z,57.99
2022-09-09T19:11:40.953Z,57.93
2022-09-09T19:14:15.645Z,58.09
2022-09-09T19:16:48.784Z,58.29
2022-09-09T19:19:23.767Z,57.95
2022-09-09T19:21:58.067Z,58.26
2022-09-09T19:24:32.833Z,58.81
2022-09-09T19:27:07.318Z,59.06
2022-09-09T19:29:39.997Z,59.13
2022-09-09T19:34:46.274Z,59.35
2022-09-09T19:37:18.855Z,59.18
2022-09-09T19:39:51.053Z,59.61
2022-09-09T19:42:23.462Z,59.47
2022-09-09T19:44:57.237Z,59.91
2022-09-09T19:47:29.292Z,60.02
2022-09-09T19:50:01.170Z,60.47
2022-09-09T19:52:33.424Z,60.58
2022-09-09T19:55:06.061Z,60.61
2022-09-09T19:57:38.188Z,61.16
2022-09-09T20:00:11.346Z,61.32
2022-09-09T20:03:02.711Z,61.66
2022-09-09T20:05:19.652Z,61.94
2022-09-09T20:08:09.056Z,61.81
2022-09-09T20:10:41.362Z,62.07
2022-09-09T20:13:14.357Z,62.31
2022-09-09T20:15:46.488Z,62.39
2022-09-09T20:18:18.636Z,62.89
2022-09-09T20:20:51.417Z,62.96
2022-09-09T20:23:23.508Z,63.10
2022-09-09T20:25:56.415Z,63.28
2022-09-09T20:28:29.680Z,63.36
2022-09-09T20:31:07.357Z,63.63
2022-09-09T20:33:39.827Z,63.65
2022-09-09T20:36:14.806Z,63.81
2022-09-09T20:38:50.439Z,63.93
2022-09-09T20:41:24.398Z,64.28
2022-09-09T20:43:59.694Z,64.53
2022-09-09T20:46:35.266Z,64.60
2022-09-09T20:49:09.023Z,64.77
2022-09-09T20:51:41.206Z,65.07
2022-09-09T20:54:16.116Z,65.22
2022-09-09T20:56:49.881Z,65.34
2022-09-09T20:59:24.322Z,65.53
2022-09-09T21:01:57.538Z,65.85
2022-09-09T21:04:29.874Z,65.94
2022-09-09T21:07:02.638Z,65.91
2022-09-09T21:09:34.657Z,66.05
2022-09-09T21:12:07.505Z,66.00
2022-09-09T21:14:39.452Z,65.97
2022-09-09T21:17:11.640Z,66.23
2022-09-09T21:19:43.841Z,66.52
2022-09-09T21:22:15.939Z,66.77
2022-09-09T21:24:47.921Z,66.86
2022-09-09T21:27:20.594Z,67.33
2022-09-09T21:29:52.968Z,67.62
2022-09-09T21:32:25.007Z,67.75
2022-09-09T21:34:57.451Z,67.97
2022-09-09T21:37:29.481Z,68.23
2022-09-09T21:40:01.930Z,68.38
2022-09-09T21:42:34.094Z,68.68
2022-09-09T21:45:06.854Z,68.80
2022-09-09T21:47:39.277Z,68.78
2022-09-09T21:50:11.481Z,68.95
2022-09-09T21:52:43.641Z,69.16
2022-09-09T21:55:15.606Z,69.42
2022-09-09T21:57:47.540Z,69.86
2022-09-09T22:00:19.527Z,69.76
2022-09-09T22:02:51.480Z,69.71
2022-09-09T22:05:23.411Z,70.13
2022-09-09T22:07:55.679Z,70.34
2022-09-09T22:10:27.700Z,70.36
2022-09-09T22:12:59.725Z,70.79
2022-09-09T22:15:32.721Z,71.04
2022-09-09T22:18:05.825Z,71.23
2022-09-09T22:20:43.068Z,71.29
2022-09-09T22:23:15.415Z,71.38
2022-09-09T22:25:49.620Z,71.14
2022-09-09T22:28:22.155Z,71.20
2022-09-09T22:30:54.615Z,70.99
2022-09-09T22:33:27.358Z,70.77
2022-09-09T22:35:59.520Z,71.13
2022-09-09T22:38:33.542Z,71.35
2022-09-09T22:41:07.565Z,71.75
2022-09-09T22:43:39.666Z,72.21
2022-09-09T22:46:11.877Z,72.20
2022-09-09T22:48:44.449Z,72.24
2022-09-09T22:51:17.324Z,72.51
2022-09-09T22:53:49.290Z,72.92
2022-09-09T22:56:21.637Z,73.09
2022-09-09T22:58:57.992Z,73.32
2022-09-09T23:01:30.669Z,73.72
2022-09-09T23:04:02.987Z,73.84
2022-09-09T23:06:35.305Z,74.08
2022-09-09T23:09:07.940Z,74.15
2022-09-09T23:11:40.922Z,74.34
2022-09-09T23:14:13.707Z,74.45
2022-09-09T23:16:46.984Z,74.64
2022-09-09T23:19:19.256Z,74.88
2022-09-09T23:21:51.425Z,75.08
2022-09-09T23:24:23.726Z,74.77
2022-09-09T23:26:56.056Z,74.49
2022-09-09T23:29:28.078Z,74.64
2022-09-09T23:32:00.214Z,74.95
2022-09-09T23:34:32.276Z,75.18
2022-09-09T23:37:04.264Z,75.29
2022-09-09T23:39:36.452Z,75.46
2022-09-09T23:42:09.714Z,75.55
2022-09-09T23:44:42.173Z,75.67
2022-09-09T23:47:14.667Z,75.91
2022-09-09T23:49:48.195Z,76.20
2022-09-09T23:52:20.310Z,76.51
2022-09-09T23:54:52.324Z,76.08
2022-09-09T23:57:24.488Z,76.43
2022-09-09T23:59:56.630Z,76.61
